Time;durP1;ratioP1;P1;durP2;ratioP2;P2;SDS_P1;SDS_P2;PMS_P1;PMS_P2;Temp;Humidity;BMP_temperature;BMP_pressure;BME280_temperature;BME280_humidity;BME280_pressure;Samples;Min_cycle;Max_cycle;Signal;HPM_P1;HPM_P2
2022/04/08 00:02:01;;;;;;;1.35;1.33;;;;;;;5.36;100.00;98158.63;7394179;19;20043;-54
2022/04/08 00:04:27;;;;;;;1.38;1.27;;;;;;;5.45;100.00;98157.72;7390837;19;20018;-53
2022/04/08 00:06:53;;;;;;;0.85;0.85;;;;;;;5.57;100.00;98158.59;7390890;19;20015;-54
2022/04/08 00:09:19;;;;;;;0.63;0.63;;;;;;;5.63;100.00;98176.75;7396867;19;20019;-54
2022/04/08 00:11:45;;;;;;;0.68;0.68;;;;;;;5.70;100.00;98159.78;7395355;19;20014;-53
2022/04/08 00:14:11;;;;;;;1.23;1.23;;;;;;;5.73;100.00;98158.06;7393499;19;20018;-53
2022/04/08 00:16:38;;;;;;;0.98;0.93;;;;;;;5.78;100.00;98160.88;7393934;19;20021;-53
2022/04/08 00:19:04;;;;;;;1.15;0.68;;;;;;;5.73;100.00;98169.13;7391840;19;20014;-54
2022/04/08 00:21:30;;;;;;;0.40;0.40;;;;;;;5.74;100.00;98176.91;7395071;19;20034;-54
2022/04/08 00:23:57;;;;;;;0.63;0.63;;;;;;;5.81;100.00;98159.94;7389928;19;20444;-53
2022/04/08 00:26:23;;;;;;;1.75;1.23;;;;;;;5.79;100.00;98156.91;7389520;19;20066;-53
2022/04/08 00:28:49;;;;;;;0.95;0.95;;;;;;;5.71;100.00;98166.84;7392724;19;20018;-53
2022/04/08 00:31:15;;;;;;;0.20;0.20;;;;;;;5.67;100.00;98163.53;7392401;19;20010;-53
2022/04/08 00:33:41;;;;;;;0.98;0.85;;;;;;;5.62;100.00;98164.22;7391442;19;20018;-53
2022/04/08 00:36:08;;;;;;;0.57;0.57;;;;;;;5.52;100.00;98173.88;7390777;19;20010;-53
2022/04/08 00:38:34;;;;;;;0.52;0.52;;;;;;;5.48;100.00;98164.28;7392598;19;20010;-54
2022/04/08 00:41:00;;;;;;;0.95;0.95;;;;;;;5.47;100.00;98171.81;7393734;19;20542;-53
2022/04/08 00:43:39;;;;;;;2.20;0.82;;;;;;;5.47;100.00;98169.03;7396721;19;20032;-54
2022/04/08 00:46:07;;;;;;;3.60;0.65;;;;;;;5.46;100.00;98166.78;7390368;19;20074;-54
2022/04/08 00:48:34;;;;;;;5.45;0.57;;;;;;;5.40;100.00;98180.47;7390993;19;20010;-53
2022/04/08 00:51:01;;;;;;;0.65;0.60;;;;;;;5.36;100.00;98171.66;7392839;19;20015;-53
2022/04/08 00:53:29;;;;;;;0.77;0.77;;;;;;;5.31;100.00;98172.31;7394395;19;20462;-53
2022/04/08 00:55:56;;;;;;;2.92;0.93;;;;;;;5.24;100.00;98167.22;7396919;19;20018;-54
2022/04/08 00:58:23;;;;;;;0.40;0.40;;;;;;;5.17;100.00;98168.38;7392334;19;20355;-53
2022/04/08 01:00:50;;;;;;;0.90;0.90;;;;;;;5.06;100.00;98161.94;7391967;19;20103;-54
2022/04/08 01:03:16;;;;;;;23.95;0.95;;;;;;;4.96;100.00;98157.78;7390857;19;20346;-54
2022/04/08 01:05:42;;;;;;;0.70;0.70;;;;;;;4.87;100.00;98163.41;7389376;19;20554;-53
2022/04/08 01:08:10;;;;;;;4.93;1.42;;;;;;;4.79;100.00;98165.78;7391553;19;20007;-54
2022/04/08 01:10:39;;;;;;;0.82;0.82;;;;;;;4.80;100.00;98172.06;7390928;19;20017;-53
2022/04/08 01:13:05;;;;;;;0.82;0.82;;;;;;;4.73;100.00;98162.19;7396200;19;20011;-53
2022/04/08 01:15:31;;;;;;;6.85;1.20;;;;;;;4.66;100.00;98156.31;7391679;19;20006;-54
2022/04/08 01:17:57;;;;;;;0.47;0.47;;;;;;;4.59;100.00;98152.69;7390219;19;20088;-54
2022/04/08 01:20:24;;;;;;;0.57;0.57;;;;;;;4.57;100.00;98149.66;7392287;19;20467;-53
2022/04/08 01:22:50;;;;;;;2.03;1.13;;;;;;;4.56;100.00;98150.91;7393008;19;20368;-53
2022/04/08 01:25:16;;;;;;;0.50;0.50;;;;;;;4.57;100.00;98141.38;7391200;19;20039;-53
2022/04/08 01:27:43;;;;;;;0.25;0.25;;;;;;;4.60;100.00;98143.19;7390275;19;20048;-53
2022/04/08 01:30:13;;;;;;;0.73;0.73;;;;;;;4.61;100.00;98147.44;7390288;19;20014;-53
2022/04/08 01:32:39;;;;;;;2.53;1.03;;;;;;;4.61;100.00;98144.69;7393075;19;20014;-53
2022/04/08 01:35:06;;;;;;;4.00;0.68;;;;;;;4.58;100.00;98145.66;7391855;19;20275;-54
2022/04/08 01:37:32;;;;;;;1.48;0.65;;;;;;;4.56;100.00;98147.38;7390888;19;20014;-53
2022/04/08 01:39:58;;;;;;;1.10;0.82;;;;;;;4.49;100.00;98147.75;7390399;19;20030;-54
2022/04/08 01:42:25;;;;;;;0.38;0.38;;;;;;;4.50;100.00;98152.03;7392367;19;20359;-53
2022/04/08 01:44:52;;;;;;;0.65;0.65;;;;;;;4.46;100.00;98149.44;7393913;19;20483;-53
2022/04/08 01:47:19;;;;;;;0.93;0.90;;;;;;;4.45;100.00;98156.22;7392278;19;20015;-53
2022/04/08 01:49:46;;;;;;;1.13;1.02;;;;;;;4.39;100.00;98158.13;7392958;19;20168;-53
2022/04/08 01:52:12;;;;;;;0.68;0.68;;;;;;;4.33;100.00;98156.50;7392712;19;20381;-53
2022/04/08 01:54:39;;;;;;;0.30;0.30;;;;;;;4.30;100.00;98166.47;7389607;19;20061;-53
2022/04/08 01:57:05;;;;;;;0.70;0.70;;;;;;;4.26;100.00;98168.66;7389996;19;20015;-53
2022/04/08 01:59:31;;;;;;;0.47;0.47;;;;;;;4.22;100.00;98154.28;7389311;19;20014;-53
2022/04/08 02:02:00;;;;;;;0.57;0.57;;;;;;;4.17;100.00;98154.97;7390598;19;20022;-53
2022/04/08 02:04:27;;;;;;;0.60;0.60;;;;;;;4.16;100.00;98152.69;7389776;19;20486;-53
2022/04/08 02:06:53;;;;;;;4.22;0.95;;;;;;;4.12;100.00;98152.88;7388170;19;20010;-53
2022/04/08 02:09:19;;;;;;;0.63;0.52;;;;;;;4.11;100.00;98150.59;7388021;19;20013;-53
2022/04/08 02:11:45;;;;;;;1.15;0.95;;;;;;;4.07;100.00;98155.53;7389737;19;20487;-53
2022/04/08 02:14:11;;;;;;;1.23;1.10;;;;;;;4.09;100.00;98153.06;7389822;19;20006;-53
2022/04/08 02:16:38;;;;;;;0.70;0.70;;;;;;;4.10;100.00;98147.06;7389501;19;20011;-53
2022/04/08 02:19:04;;;;;;;0.60;0.60;;;;;;;4.15;100.00;98145.66;7388354;19;20029;-53
2022/04/08 02:21:32;;;;;;;0.85;0.85;;;;;;;4.04;100.00;98146.22;7391776;19;20021;-53
2022/04/08 02:23:58;;;;;;;0.40;0.38;;;;;;;4.11;100.00;98148.59;7392875;19;20022;-53
2022/04/08 02:26:25;;;;;;;0.80;0.80;;;;;;;4.06;100.00;98143.75;7388468;19;20014;-53
2022/04/08 02:28:51;;;;;;;0.80;0.80;;;;;;;4.01;100.00;98147.16;7388350;19;20020;-53
2022/04/08 02:31:17;;;;;;;1.02;1.02;;;;;;;4.01;100.00;98141.63;7392309;19;20028;-53
2022/04/08 02:33:43;;;;;;;1.00;1.00;;;;;;;4.02;100.00;98151.44;7388033;19;20010;-53
2022/04/08 02:36:09;;;;;;;1.25;1.00;;;;;;;3.99;100.00;98144.13;7393853;19;20040;-53
2022/04/08 02:38:35;;;;;;;0.88;0.88;;;;;;;3.92;100.00;98138.97;7399235;19;20352;-53
2022/04/08 02:41:02;;;;;;;0.32;0.32;;;;;;;3.89;100.00;98137.19;7397682;19;20014;-53
2022/04/08 02:43:28;;;;;;;1.00;1.00;;;;;;;3.85;100.00;98140.09;7399688;19;20010;-53
2022/04/08 02:45:55;;;;;;;2.15;1.95;;;;;;;3.88;100.00;98146.66;7398467;19;20046;-53
2022/04/08 02:48:21;;;;;;;0.70;0.70;;;;;;;3.84;100.00;98143.31;7398083;19;20363;-53
2022/04/08 02:50:47;;;;;;;1.27;0.63;;;;;;;3.90;100.00;98133.16;7394547;19;20062;-53
2022/04/08 02:53:14;;;;;;;0.40;0.40;;;;;;;3.84;100.00;98132.31;7393483;19;20021;-53
2022/04/08 02:55:40;;;;;;;0.47;0.47;;;;;;;3.88;100.00;98132.88;7394779;19;20010;-53
2022/04/08 02:58:06;;;;;;;0.85;0.60;;;;;;;3.83;100.00;98130.81;7396776;19;20038;-53
2022/04/08 03:00:32;;;;;;;0.85;0.80;;;;;;;3.89;100.00;98128.91;7394757;19;20087;-53
2022/04/08 03:02:59;;;;;;;0.73;0.73;;;;;;;3.96;100.00;98128.56;7397761;19;20011;-53
2022/04/08 03:05:25;;;;;;;0.77;0.77;;;;;;;3.93;100.00;98129.47;7394240;19;20026;-53
2022/04/08 03:07:52;;;;;;;1.25;1.25;;;;;;;3.92;100.00;98127.22;7397199;19;20010;-53
2022/04/08 03:10:31;;;;;;;1.65;0.85;;;;;;;3.88;100.00;98132.88;7397919;19;20071;-53
2022/04/08 03:12:57;;;;;;;2.42;1.48;;;;;;;3.85;100.00;98123.56;7403850;19;20018;-91
2022/04/08 03:15:23;;;;;;;0.57;0.57;;;;;;;3.80;100.00;98131.75;7398339;19;20015;-90
2022/04/08 03:17:51;;;;;;;0.70;0.70;;;;;;;3.81;100.00;98128.50;7398686;19;20011;-95
2022/04/08 03:20:17;;;;;;;0.82;0.82;;;;;;;3.78;100.00;98134.22;7399667;19;20013;-95
2022/04/08 03:22:43;;;;;;;0.80;0.80;;;;;;;3.76;100.00;98134.69;7404496;19;20361;-95
2022/04/08 03:25:10;;;;;;;0.73;0.73;;;;;;;3.74;100.00;98134.41;7399266;19;20353;-94
2022/04/08 03:27:36;;;;;;;0.60;0.60;;;;;;;3.71;100.00;98134.56;7400837;19;20460;-94
2022/04/08 03:30:02;;;;;;;0.50;0.50;;;;;;;3.74;100.00;98133.63;7400201;19;20021;-95
2022/04/08 03:32:28;;;;;;;0.73;0.50;;;;;;;3.71;100.00;98132.56;7404304;19;20010;-95
2022/04/08 03:34:57;;;;;;;0.65;0.65;;;;;;;3.67;100.00;98128.47;7400687;19;20017;-95
2022/04/08 03:37:25;;;;;;;1.13;1.05;;;;;;;3.68;100.00;98141.03;7402990;19;20011;-94
2022/04/08 03:39:51;;;;;;;0.95;0.95;;;;;;;3.70;100.00;98149.56;7400677;19;20124;-94
2022/04/08 03:42:17;;;;;;;0.68;0.68;;;;;;;3.66;100.00;98144.22;7404703;19;20346;-95
2022/04/08 03:44:44;;;;;;;0.63;0.63;;;;;;;3.62;100.00;98142.88;7400017;19;20006;-95
2022/04/08 03:47:10;;;;;;;0.90;0.90;;;;;;;3.61;100.00;98146.88;7400936;19;20030;-94
2022/04/08 03:49:36;;;;;;;1.15;0.88;;;;;;;3.55;100.00;98141.25;7400903;19;20050;-94
2022/04/08 03:52:09;;;;;;;1.73;1.08;;;;;;;3.52;100.00;98138.69;7401548;19;20022;-95
2022/04/08 03:54:38;;;;;;;0.40;0.40;;;;;;;3.47;100.00;98136.56;7405974;19;20018;-94
2022/04/08 03:57:05;;;;;;;0.57;0.57;;;;;;;3.45;100.00;98130.78;7400479;19;20019;-93
2022/04/08 03:59:31;;;;;;;0.70;0.70;;;;;;;3.43;100.00;98141.50;7399431;19;20021;-95
2022/04/08 04:01:58;;;;;;;0.60;0.60;;;;;;;3.33;100.00;98135.31;7400685;19;20010;-95
2022/04/08 04:04:24;;;;;;;3.85;1.00;;;;;;;3.30;100.00;98121.72;7399415;19;20018;-94
2022/04/08 04:06:50;;;;;;;0.80;0.80;;;;;;;3.25;100.00;98125.13;7396936;19;20010;-95
2022/04/08 04:09:16;;;;;;;1.10;1.10;;;;;;;3.18;100.00;98131.75;7397622;19;20765;-95
2022/04/08 04:11:42;;;;;;;8.07;1.25;;;;;;;3.13;100.00;98126.09;7399946;19;20021;-94
2022/04/08 04:14:08;;;;;;;0.80;0.80;;;;;;;3.08;100.00;98127.50;7401322;19;20034;-94
2022/04/08 04:16:35;;;;;;;1.48;1.15;;;;;;;3.06;100.00;98119.72;7400632;19;20102;-94
2022/04/08 04:19:01;;;;;;;8.18;1.48;;;;;;;2.99;100.00;98128.31;7397293;19;20025;-94
2022/04/08 04:21:27;;;;;;;1.13;1.02;;;;;;;2.98;100.00;98129.56;7390971;19;20111;-94
2022/04/08 04:23:53;;;;;;;0.88;0.88;;;;;;;2.95;100.00;98124.97;7400659;19;20014;-95
2022/04/08 04:26:19;;;;;;;0.90;0.90;;;;;;;2.95;100.00;98119.47;7397181;19;20014;-94
2022/04/08 04:28:46;;;;;;;1.10;1.10;;;;;;;2.94;100.00;98122.72;7397467;19;20367;-94
2022/04/08 04:31:12;;;;;;;0.90;0.90;;;;;;;2.94;100.00;98114.47;7399271;19;20018;-95
2022/04/08 04:33:38;;;;;;;0.85;0.85;;;;;;;2.90;100.00;98117.34;7398720;19;20011;-95
2022/04/08 04:36:04;;;;;;;0.98;0.98;;;;;;;2.89;100.00;98115.84;7398834;19;20028;-94
2022/04/08 04:38:30;;;;;;;10.45;1.38;;;;;;;2.87;100.00;98118.31;7398748;19;20745;-95
2022/04/08 04:40:56;;;;;;;0.88;0.88;;;;;;;2.86;100.00;98105.78;7398928;19;20018;-94
2022/04/08 04:43:22;;;;;;;1.08;1.08;;;;;;;2.83;100.00;98111.47;7398232;19;20019;-94
2022/04/08 04:45:48;;;;;;;3.05;1.67;;;;;;;2.76;100.00;98107.06;7399989;19;20014;-94
2022/04/08 04:48:15;;;;;;;1.63;1.27;;;;;;;2.79;100.00;98103.41;7398233;19;20018;-94
2022/04/08 04:50:41;;;;;;;0.88;0.88;;;;;;;2.79;100.00;98106.16;7398991;19;20345;-94
2022/04/08 04:53:07;;;;;;;0.88;0.88;;;;;;;2.77;100.00;98114.06;7404169;19;20339;-94
2022/04/08 04:55:33;;;;;;;0.82;0.82;;;;;;;2.69;100.00;98104.66;7398273;19;20476;-94
2022/04/08 04:58:00;;;;;;;0.90;0.90;;;;;;;2.68;100.00;98103.13;7397222;19;20007;-95
2022/04/08 05:00:26;;;;;;;1.20;1.20;;;;;;;2.64;100.00;98112.78;7398622;19;20033;-96
2022/04/08 05:02:52;;;;;;;0.70;0.70;;;;;;;2.56;100.00;98112.34;7408627;19;20022;-96
2022/04/08 05:05:18;;;;;;;0.95;0.95;;;;;;;2.58;100.00;98123.63;7406309;19;20018;-96
2022/04/08 05:07:45;;;;;;;0.82;0.82;;;;;;;2.60;100.00;98115.66;7429738;19;20014;-96
2022/04/08 05:10:11;;;;;;;0.63;0.63;;;;;;;2.62;100.00;98107.72;7429983;19;20007;-96
2022/04/08 05:12:37;;;;;;;0.82;0.82;;;;;;;2.62;100.00;98115.22;7423831;19;20026;-53
2022/04/08 05:15:06;;;;;;;0.70;0.70;;;;;;;2.63;100.00;98116.72;7389674;19;20034;-53
2022/04/08 05:17:35;;;;;;;20.83;2.25;;;;;;;2.61;100.00;98125.44;7387297;19;20014;-53
2022/04/08 05:20:04;;;;;;;1.23;1.23;;;;;;;2.61;100.00;98128.19;7389289;19;20476;-52
2022/04/08 05:22:30;;;;;;;0.98;0.98;;;;;;;2.56;100.00;98126.06;7392561;19;20105;-53
2022/04/08 05:24:58;;;;;;;0.95;0.95;;;;;;;2.61;100.00;98124.69;7387743;19;20019;-52
2022/04/08 05:27:24;;;;;;;1.27;1.27;;;;;;;2.62;100.00;98118.72;7390533;19;20361;-53
2022/04/08 05:29:50;;;;;;;1.17;1.17;;;;;;;2.57;100.00;98111.13;7389505;19;20411;-53
2022/04/08 05:32:16;;;;;;;0.70;0.70;;;;;;;2.60;100.00;98115.66;7391377;19;20021;-52
2022/04/08 05:34:43;;;;;;;1.02;1.02;;;;;;;2.64;100.00;98115.53;7391121;19;20066;-52
2022/04/08 05:37:09;;;;;;;1.13;1.13;;;;;;;2.66;100.00;98113.06;7393238;19;20034;-53
2022/04/08 05:39:35;;;;;;;1.42;0.90;;;;;;;2.71;100.00;98106.91;7392821;19;20344;-53
2022/04/08 05:42:02;;;;;;;0.88;0.88;;;;;;;2.74;100.00;98117.00;7390860;19;20026;-53
2022/04/08 05:44:28;;;;;;;1.23;1.10;;;;;;;2.73;100.00;98110.00;7391917;19;20311;-53
2022/04/08 05:46:57;;;;;;;1.58;1.48;;;;;;;2.74;100.00;98112.25;7391632;19;20042;-53
2022/04/08 05:49:23;;;;;;;0.98;0.98;;;;;;;2.76;100.00;98115.31;7392823;19;20030;-52
2022/04/08 05:51:49;;;;;;;1.90;1.10;;;;;;;2.80;100.00;98121.38;7392657;19;20011;-52
2022/04/08 05:54:16;;;;;;;0.88;0.88;;;;;;;2.79;100.00;98117.13;7393745;19;20045;-53
2022/04/08 05:56:42;;;;;;;1.20;1.20;;;;;;;2.77;100.00;98127.81;7392073;19;20011;-53
2022/04/08 05:59:08;;;;;;;0.63;0.63;;;;;;;2.76;100.00;98112.56;7386305;19;20046;-54
2022/04/08 06:01:34;;;;;;;0.90;0.90;;;;;;;2.77;100.00;98121.56;7391701;19;20010;-53
2022/04/08 06:04:00;;;;;;;0.40;0.40;;;;;;;2.79;100.00;98121.88;7392924;19;20022;-52
2022/04/08 06:06:26;;;;;;;1.25;1.15;;;;;;;2.81;100.00;98108.41;7391558;19;20038;-52
2022/04/08 06:08:52;;;;;;;0.98;0.98;;;;;;;2.82;100.00;98107.94;7393299;19;20017;-53
2022/04/08 06:11:19;;;;;;;2.10;1.92;;;;;;;2.83;100.00;98114.97;7390841;19;20007;-53
2022/04/08 06:13:45;;;;;;;1.00;1.00;;;;;;;2.85;100.00;98109.78;7391862;19;20347;-53
2022/04/08 06:16:11;;;;;;;0.98;0.98;;;;;;;2.88;100.00;98108.81;7390555;19;20017;-54
2022/04/08 06:18:38;;;;;;;0.70;0.70;;;;;;;2.79;100.00;98114.38;7390578;19;20009;-53
2022/04/08 06:21:04;;;;;;;1.30;1.30;;;;;;;2.90;100.00;98116.63;7392484;19;20015;-52
2022/04/08 06:23:30;;;;;;;1.23;1.23;;;;;;;2.91;100.00;98113.41;7392054;19;20021;-53
2022/04/08 06:25:56;;;;;;;1.20;1.20;;;;;;;2.88;100.00;98116.34;7387983;19;20011;-53
2022/04/08 06:28:22;;;;;;;1.13;1.13;;;;;;;2.83;100.00;98114.97;7391506;19;20025;-54
2022/04/08 06:30:49;;;;;;;15.32;1.60;;;;;;;2.82;100.00;98116.19;7391771;19;20014;-53
2022/04/08 06:33:16;;;;;;;0.75;0.75;;;;;;;2.88;100.00;98108.81;7391881;19;20007;-54
2022/04/08 06:35:42;;;;;;;0.55;0.55;;;;;;;2.88;100.00;98100.56;7392001;19;20014;-53
2022/04/08 06:38:08;;;;;;;0.80;0.80;;;;;;;2.85;100.00;98126.25;7388249;19;20098;-54
2022/04/08 06:40:37;;;;;;;17.08;1.20;;;;;;;2.95;100.00;98116.72;7392266;19;20011;-53
2022/04/08 06:43:03;;;;;;;5.47;1.25;;;;;;;3.00;100.00;98121.59;7392483;19;20026;-53
2022/04/08 06:45:29;;;;;;;1.13;1.13;;;;;;;3.06;100.00;98122.47;7386489;19;20073;-54
2022/04/08 06:47:56;;;;;;;1.70;1.20;;;;;;;3.12;100.00;98119.09;7389248;19;20006;-54
2022/04/08 06:50:22;;;;;;;2.17;2.03;;;;;;;3.12;100.00;98124.59;7389341;19;20011;-54
2022/04/08 06:52:49;;;;;;;0.70;0.70;;;;;;;3.12;100.00;98124.59;7392726;19;20014;-53
2022/04/08 06:55:15;;;;;;;4.68;0.93;;;;;;;3.18;100.00;98119.97;7392593;19;20018;-53
2022/04/08 06:57:42;;;;;;;0.82;0.82;;;;;;;3.24;100.00;98118.88;7387328;19;20034;-54
2022/04/08 07:00:11;;;;;;;1.45;1.30;;;;;;;3.34;100.00;98122.28;7387653;19;20023;-53
2022/04/08 07:02:38;;;;;;;0.63;0.63;;;;;;;3.46;100.00;98119.31;7391503;19;20013;-54
2022/04/08 07:05:06;;;;;;;0.77;0.77;;;;;;;3.56;100.00;98117.25;7387050;19;20015;-54
2022/04/08 07:07:33;;;;;;;0.65;0.65;;;;;;;3.58;100.00;98120.28;7389138;19;20011;-54
2022/04/08 07:09:59;;;;;;;0.70;0.70;;;;;;;3.63;100.00;98119.66;7388280;19;20017;-53
2022/04/08 07:12:26;;;;;;;1.13;1.13;;;;;;;3.71;100.00;98118.03;7391640;19;20471;-53
2022/04/08 07:14:53;;;;;;;0.90;0.90;;;;;;;3.78;100.00;98112.94;7388434;19;20097;-54
2022/04/08 07:17:27;;;;;;;12.10;1.17;;;;;;;3.87;100.00;98114.09;7387585;19;20360;-54
2022/04/08 07:19:54;;;;;;;34.38;2.38;;;;;;;3.92;100.00;98113.44;7392309;19;20020;-54
2022/04/08 07:22:21;;;;;;;1.30;1.30;;;;;;;3.99;100.00;98105.56;7396885;19;20003;-54
2022/04/08 07:24:47;;;;;;;0.80;0.80;;;;;;;4.09;100.00;98104.25;7398645;19;20021;-54
2022/04/08 07:27:13;;;;;;;0.50;0.50;;;;;;;4.19;100.00;98113.94;7394809;19;20480;-54
2022/04/08 07:29:39;;;;;;;2.63;1.67;;;;;;;4.26;100.00;98116.31;7395823;19;20003;-54
2022/04/08 07:32:06;;;;;;;0.77;0.77;;;;;;;4.33;100.00;98120.69;7397265;19;20007;-54
2022/04/08 07:34:32;;;;;;;1.60;1.50;;;;;;;4.41;100.00;98121.81;7397269;19;20463;-54
2022/04/08 07:36:59;;;;;;;6.75;2.30;;;;;;;4.48;100.00;98122.19;7394464;19;20021;-54
2022/04/08 07:39:26;;;;;;;6.22;0.70;;;;;;;4.52;100.00;98114.50;7393599;19;20014;-54
2022/04/08 07:41:52;;;;;;;1.42;1.35;;;;;;;4.60;100.00;98112.88;7399343;19;20010;-53
2022/04/08 07:44:18;;;;;;;2.85;1.27;;;;;;;4.67;100.00;98110.94;7394439;19;20388;-54
2022/04/08 07:46:44;;;;;;;0.68;0.68;;;;;;;4.79;100.00;98109.88;7391902;19;20011;-53
2022/04/08 07:49:11;;;;;;;17.75;2.03;;;;;;;4.82;100.00;98111.69;7393468;19;20003;-53
2022/04/08 07:51:37;;;;;;;1.13;1.13;;;;;;;4.87;100.00;98108.25;7395818;19;20013;-54
2022/04/08 07:54:03;;;;;;;0.77;0.77;;;;;;;4.91;100.00;98106.06;7397057;19;20351;-54
2022/04/08 07:56:33;;;;;;;0.85;0.40;;;;;;;5.00;100.00;98114.22;7394449;19;20025;-53
2022/04/08 07:58:59;;;;;;;1.13;0.73;;;;;;;5.06;100.00;98109.53;7394287;19;20011;-53
2022/04/08 08:01:25;;;;;;;0.95;0.75;;;;;;;5.15;100.00;98110.16;7395265;19;20067;-53
2022/04/08 08:03:51;;;;;;;0.47;0.47;;;;;;;5.26;100.00;98112.31;7396889;19;20355;-53
2022/04/08 08:06:17;;;;;;;1.52;1.30;;;;;;;5.32;100.00;98107.63;7395877;19;20025;-53
2022/04/08 08:08:44;;;;;;;4.43;1.27;;;;;;;5.45;100.00;98116.31;7394179;19;20381;-54
2022/04/08 08:11:11;;;;;;;1.60;0.93;;;;;;;5.50;100.00;98101.81;7394884;19;20354;-54
2022/04/08 08:13:38;;;;;;;2.72;1.45;;;;;;;5.59;100.00;98098.91;7393257;19;20070;-53
2022/04/08 08:16:07;;;;;;;6.13;1.13;;;;;;;5.70;100.00;98109.31;7392990;19;20035;-53
2022/04/08 08:18:34;;;;;;;0.65;0.65;;;;;;;5.77;100.00;98114.44;7392133;19;20019;-53
2022/04/08 08:21:00;;;;;;;0.68;0.68;;;;;;;5.81;100.00;98110.22;7396045;19;20010;-53
2022/04/08 08:23:27;;;;;;;0.88;0.88;;;;;;;5.94;100.00;98113.41;7395548;19;20040;-53
2022/04/08 08:25:55;;;;;;;0.75;0.75;;;;;;;6.11;100.00;98110.78;7391606;19;20359;-52
2022/04/08 08:28:22;;;;;;;0.28;0.28;;;;;;;6.28;100.00;98114.47;7392496;19;20080;-53
2022/04/08 08:30:48;;;;;;;0.50;0.50;;;;;;;6.39;100.00;98108.31;7391659;19;20035;-54
2022/04/08 08:33:14;;;;;;;0.40;0.40;;;;;;;6.45;100.00;98104.34;7390658;19;20066;-54
2022/04/08 08:35:40;;;;;;;1.10;1.05;;;;;;;6.58;100.00;98117.75;7392896;19;20025;-53
2022/04/08 08:38:07;;;;;;;1.08;0.95;;;;;;;6.76;100.00;98111.84;7392778;19;20080;-53
2022/04/08 08:40:34;;;;;;;0.93;0.93;;;;;;;6.96;100.00;98111.75;7390804;19;20037;-54
2022/04/08 08:43:01;;;;;;;0.68;0.68;;;;;;;7.09;100.00;98114.84;7396441;19;20011;-53
2022/04/08 08:45:34;;;;;;;0.73;0.73;;;;;;;7.17;100.00;98126.97;7395993;19;20015;-53
2022/04/08 08:48:02;;;;;;;0.40;0.40;;;;;;;7.24;100.00;98126.50;7393764;19;20450;-53
2022/04/08 08:50:30;;;;;;;5.00;0.57;;;;;;;7.42;100.00;98112.28;7395285;19;20007;-53
2022/04/08 08:52:57;;;;;;;0.20;0.20;;;;;;;7.58;100.00;98117.09;7395241;19;20419;-53
2022/04/08 08:55:24;;;;;;;0.40;0.40;;;;;;;7.65;100.00;98113.88;7396706;19;20038;-53
2022/04/08 08:57:52;;;;;;;0.43;0.43;;;;;;;7.79;100.00;98119.72;7396131;19;20348;-54
2022/04/08 09:00:20;;;;;;;0.55;0.55;;;;;;;7.94;100.00;98121.03;7392597;19;20021;-53
2022/04/08 09:02:50;;;;;;;0.70;0.70;;;;;;;8.06;100.00;98127.34;7396092;19;20031;-53
2022/04/08 09:05:24;;;;;;;1.15;0.43;;;;;;;8.14;100.00;98125.63;7390709;19;20018;-53
2022/04/08 09:07:53;;;;;;;0.40;0.40;;;;;;;8.29;100.00;98134.50;7389890;19;20007;-53
2022/04/08 09:13:28;;;;;;;1.15;1.10;;;;;;;8.56;100.00;98130.22;7388551;19;20137;-65
2022/04/08 09:16:04;;;;;;;0.30;0.30;;;;;;;8.72;100.00;98132.25;7388183;19;20428;-66
2022/04/08 09:18:36;;;;;;;0.45;0.45;;;;;;;8.88;100.00;98129.47;7388982;19;20015;-65
2022/04/08 09:21:03;;;;;;;2.30;0.50;;;;;;;9.07;100.00;98130.44;7390752;19;20003;-66
2022/04/08 09:23:33;;;;;;;0.20;0.20;;;;;;;9.18;100.00;98137.25;7392264;19;20010;-67
2022/04/08 09:26:13;;;;;;;2.90;0.68;;;;;;;9.39;100.00;98132.91;7387980;19;20552;-57
2022/04/08 09:28:41;;;;;;;1.08;0.85;;;;;;;9.59;100.00;98143.72;7389661;19;20017;-57
2022/04/08 09:31:18;;;;;;;0.55;0.55;;;;;;;9.76;100.00;98150.00;7390100;19;20011;-57
2022/04/08 09:33:55;;;;;;;0.52;0.52;;;;;;;9.86;100.00;98151.19;7391642;19;20035;-57
2022/04/08 09:36:32;;;;;;;0.20;0.20;;;;;;;9.92;100.00;98155.47;7388513;19;20385;-57
2022/04/08 09:38:59;;;;;;;0.55;0.40;;;;;;;10.17;100.00;98155.63;7390504;19;20015;-57
2022/04/08 09:41:44;;;;;;;0.50;0.50;;;;;;;10.26;100.00;98164.44;7392019;19;20018;-57
2022/04/08 09:44:12;;;;;;;0.63;0.40;;;;;;;10.39;100.00;98161.84;7388869;19;20462;-57
2022/04/08 09:46:40;;;;;;;0.65;0.65;;;;;;;10.53;100.00;98159.97;7388238;19;20014;-57
2022/04/08 09:49:07;;;;;;;1.95;0.65;;;;;;;10.76;100.00;98164.13;7389884;19;20364;-57
2022/04/08 09:51:38;;;;;;;0.20;0.20;;;;;;;11.10;100.00;98172.94;7391877;19;20029;-57
2022/04/08 09:54:06;;;;;;;0.30;0.30;;;;;;;11.42;100.00;98168.34;7392932;19;20340;-57
2022/04/08 09:56:34;;;;;;;6.22;0.40;;;;;;;11.63;100.00;98163.06;7389220;19;20040;-57
2022/04/08 09:59:00;;;;;;;0.20;0.20;;;;;;;11.70;100.00;98165.28;7389942;19;20010;-57
2022/04/08 10:01:28;;;;;;;0.52;0.52;;;;;;;11.77;100.00;98173.81;7389453;19;20344;-57
2022/04/08 10:03:55;;;;;;;0.40;0.40;;;;;;;11.82;100.00;98173.00;7390028;19;20412;-57
2022/04/08 10:06:23;;;;;;;0.50;0.50;;;;;;;11.93;100.00;98170.06;7386816;19;20018;-58
2022/04/08 10:08:50;;;;;;;1.75;0.30;;;;;;;11.98;100.00;98174.81;7389126;19;20018;-57
2022/04/08 10:11:27;;;;;;;0.60;0.60;;;;;;;12.16;100.00;98171.31;7389789;19;20017;-57
2022/04/08 10:14:20;;;;;;;3.03;0.47;;;;;;;12.31;100.00;98176.44;7389099;19;20323;-57
2022/04/08 10:16:52;;;;;;;0.80;0.73;;;;;;;11.94;100.00;98177.16;7387731;19;20022;-57
2022/04/08 10:19:21;;;;;;;0.55;0.52;;;;;;;11.49;100.00;98183.72;7389382;19;20038;-57
2022/04/08 10:21:53;;;;;;;0.80;0.40;;;;;;;11.02;100.00;98183.16;7389850;19;20510;-57
2022/04/08 10:24:24;;;;;;;4.25;0.50;;;;;;;10.92;100.00;98184.72;7392286;19;20016;-57
2022/04/08 10:27:06;;;;;;;0.75;0.75;;;;;;;11.28;100.00;98191.78;7385653;19;20078;-57
2022/04/08 10:29:33;;;;;;;0.50;0.50;;;;;;;11.62;100.00;98192.22;7388498;19;20006;-57
2022/04/08 10:32:18;;;;;;;3.72;0.70;;;;;;;11.84;100.00;98189.97;7390188;19;20459;-57
2022/04/08 10:34:44;;;;;;;0.52;0.52;;;;;;;11.61;100.00;98194.22;7392664;19;20018;-57
2022/04/08 10:37:26;;;;;;;0.15;0.10;;;;;;;11.34;100.00;98203.63;7387626;19;20011;-57
2022/04/08 10:40:03;;;;;;;0.38;0.38;;;;;;;11.42;100.00;98204.56;7387908;19;20037;-57
2022/04/08 10:42:31;;;;;;;0.40;0.40;;;;;;;11.58;100.00;98209.22;7391777;19;20325;-58
2022/04/08 10:44:57;;;;;;;0.38;0.38;;;;;;;11.90;100.00;98204.59;7387041;19;20328;-57
2022/04/08 10:47:24;;;;;;;0.50;0.50;;;;;;;12.33;100.00;98203.81;7388645;19;20481;-57
2022/04/08 10:49:58;;;;;;;1.20;0.93;;;;;;;12.14;100.00;98207.38;7388123;19;20355;-57
2022/04/08 10:52:26;;;;;;;0.40;0.40;;;;;;;11.79;100.00;98207.50;7390052;19;20042;-57
2022/04/08 10:55:05;;;;;;;6.32;0.60;;;;;;;11.65;100.00;98213.47;7388353;19;20023;-57
2022/04/08 10:57:35;;;;;;;0.65;0.60;;;;;;;11.40;100.00;98227.41;7393680;19;20011;-57
2022/04/08 11:00:10;;;;;;;0.40;0.40;;;;;;;11.48;100.00;98224.78;7396220;19;20457;-56
2022/04/08 11:02:38;;;;;;;2.38;0.63;;;;;;;11.47;100.00;98228.09;7399220;19;20323;-57
2022/04/08 11:05:07;;;;;;;0.50;0.50;;;;;;;11.61;100.00;98221.38;7396611;19;20038;-57
2022/04/08 11:07:34;;;;;;;0.40;0.40;;;;;;;11.83;100.00;98216.34;7397818;19;20071;-57
2022/04/08 11:10:03;;;;;;;0.30;0.30;;;;;;;12.08;100.00;98208.72;7396380;19;20018;-58
2022/04/08 11:12:30;;;;;;;0.50;0.50;;;;;;;12.29;100.00;98211.75;7394530;19;20011;-59
2022/04/08 11:14:58;;;;;;;7.03;1.38;;;;;;;12.48;100.00;98212.50;7392620;19;20006;-59
2022/04/08 11:17:36;;;;;;;0.28;0.28;;;;;;;12.74;100.00;98218.22;7392563;19;20021;-60
2022/04/08 11:20:04;;;;;;;0.30;0.30;;;;;;;12.68;100.00;98223.13;7392105;19;20015;-59
2022/04/08 11:22:43;;;;;;;0.43;0.43;;;;;;;12.54;99.52;98222.31;7396272;19;20011;-60
2022/04/08 11:25:10;;;;;;;0.55;0.55;;;;;;;12.51;100.00;98223.38;7390705;19;20351;-59
2022/04/08 11:27:37;;;;;;;0.30;0.30;;;;;;;12.44;100.00;98223.22;7395455;19;20450;-59
2022/04/08 11:30:09;;;;;;;4.95;0.40;;;;;;;12.21;100.00;98224.78;7395543;19;20015;-59
2022/04/08 11:32:39;;;;;;;0.63;0.40;;;;;;;12.23;100.00;98230.59;7394147;19;20481;-60
2022/04/08 11:35:13;;;;;;;1.75;0.70;;;;;;;12.25;100.00;98231.59;7394458;19;20070;-59
2022/04/08 11:37:40;;;;;;;0.73;0.50;;;;;;;12.41;100.00;98227.81;7393972;19;20035;-60